Werte bis 5 Uhr SommerzeitDiagramme Dauborn: Tagesdaten MonatsdatenCSV-Datei: Dauborn20.csv

Wetterdaten 2020 Station: Dauborn
Temperaturen in °C relative Nieder- Global- Wind Wind Wind- Sonnen-
Datum Boden Boden Luft Luft Luft Luft Feuchte schlag strahlung max richtung schein
20 cm 5 cm 20 cm 2 m 2 m max 2 m min % mm W/m2*d m/s m/s ° h

07.08.2020 22,2 20,1 13,8 15,3 16,8 13,3 72 0,0 0 0,3 1,7 --- ---
06.08.2020 21,2 21,6 22,7 21,8 31,7 9,1 48 0,0 7200 0,8 5,6 --- 12,2
05.08.2020 20,8 20,6 20,5 19,3 28,7 6,9 50 0,0 6959 0,9 7,4 --- 12,3
04.08.2020 21,1 20,8 20,2 18,4 26,1 10,3 58 0,0 6164 1,1 9,0 --- 11,9
03.08.2020 21,4 20,6 19,4 17,9 25,2 11,7 68 0,0 3612 0,7 5,1 --- 8,8
02.08.2020 22,1 22,2 23,5 22,2 28,2 16,1 58 0,9 5147 1,5 8,3 --- 9,6
01.08.2020 22,1 22,0 24,0 23,1 32,8 13,1 56 0,0 3870 0,8 9,1 --- 9,7
31.07.2020 21,8 22,7 25,1 24,2 36,2 10,5 44 0,0 7447 0,6 4,4 --- 12,3
30.07.2020 21,1 21,5 21,9 20,6 31,3 8,2 50 0,0 7377 0,6 5,4 --- 12,3
29.07.2020 20,8 20,8 20,6 18,6 27,3 8,2 53 0,0 7386 1,0 6,4 --- 11,9
28.07.2020 21,1 21,2 23,7 22,3 27,5 14,3 46 0,0 4564 1,9 11,5 --- 10,8
27.07.2020 20,6 20,0 22,0 21,0 30,7 10,1 57 0,0 5264 1,1 7,0 --- 11,8
26.07.2020 21,5 21,3 21,8 20,4 26,0 14,6 64 13,9 4996 1,6 11,8 --- 10,9
25.07.2020 21,2 21,5 23,0 21,1 28,8 11,5 55 0,0 4704 1,0 6,5 --- 10,6
24.07.2020 21,2 21,7 23,3 20,7 28,3 12,0 49 0,0 5272 1,5 7,4 --- 11,4
23.07.2020 20,5 21,0 21,4 19,1 28,6 7,8 49 0,0 7603 0,9 6,0 --- 12,2
22.07.2020 20,2 20,3 19,8 17,5 27,5 5,2 50 0,0 7662 0,9 5,7 --- 12,1
21.07.2020 20,0 20,1 19,9 17,6 26,1 7,2 54 0,0 7988 1,1 8,9 --- 12,3
20.07.2020 20,2 19,5 19,8 18,7 26,1 12,0 67 1,0 4875 1,3 7,2 --- 10,0
19.07.2020 20,2 20,4 22,5 21,5 30,7 9,8 56 0,0 5988 0,6 5,3 --- 11,8
18.07.2020 19,9 20,3 21,9 20,4 28,3 11,4 62 0,0 6547 0,7 4,4 --- 11,4
17.07.2020 19,0 19,1 20,5 18,6 25,3 13,7 74 0,7 4903 0,7 6,7 --- 10,5
16.07.2020 19,0 17,6 16,3 15,3 17,7 13,3 87 2,2 1516 0,8 5,0 --- 5,1
15.07.2020 19,7 19,2 19,0 17,3 23,4 14,2 70 2,7 4844 1,4 8,0 --- 9,2
14.07.2020 20,0 19,7 20,0 18,6 27,8 9,7 60 0,2 4193 0,8 9,1 --- 8,1
13.07.2020 19,5 19,7 20,1 18,7 29,0 7,4 54 0,0 7486 0,7 6,2 --- 12,3
12.07.2020 19,2 19,1 18,7 16,9 26,1 5,8 58 0,0 7601 0,7 6,0 --- 12,2
11.07.2020 19,4 18,6 17,9 16,2 24,2 8,5 62 0,0 5668 0,9 6,6 --- 12,0
10.07.2020 20,2 19,8 20,6 18,9 23,3 14,4 71 0,0 2974 2,0 11,7 --- 10,7
09.07.2020 19,5 20,3 24,0 21,9 28,9 15,8 67 0,0 5513 1,6 11,0 --- 11,4
08.07.2020 19,3 17,9 15,7 14,8 17,2 13,1 85 2,9 1591 0,8 4,3 --- 6,1
07.07.2020 19,4 18,7 18,3 15,8 24,1 5,0 62 0,0 6569 0,9 6,8 --- 12,1
06.07.2020 20,4 19,7 18,5 16,1 21,3 10,0 63 0,5 5250 2,7 11,9 --- 10,2
05.07.2020 20,7 21,2 23,7 22,4 27,8 18,4 64 0,0 4416 1,9 9,4 --- 8,9
04.07.2020 20,0 19,9 21,2 19,3 26,8 9,8 60 0,0 5580 1,3 9,2 --- 10,6
03.07.2020 20,0 19,4 20,7 17,8 25,0 10,4 65 0,0 6026 1,3 7,2 --- 11,4
02.07.2020 20,4 20,4 20,3 18,8 25,8 13,9 77 6,1 4661 1,3 8,6 --- 9,3
01.07.2020 19,6 20,1 23,0 21,2 27,8 14,1 64 0,0 5910 1,8 9,3 --- 10,7
30.06.2020 19,3 17,8 18,1 16,7 23,2 8,7 63 0,0 4587 1,4 9,0 --- 11,9
29.06.2020 20,0 19,5 19,0 17,2 24,4 11,5 66 6,0 6711 1,6 12,6 --- 9,6
28.06.2020 21,2 20,5 20,5 19,8 23,0 13,4 66 1,1 2598 1,2 8,7 --- 9,4
27.06.2020 21,4 21,8 23,3 22,2 29,3 14,3 67 0,1 4489 1,0 7,8 --- 11,1
26.06.2020 20,8 21,8 22,4 21,4 31,0 10,2 63 0,0 7771 1,1 8,1 --- 11,3
25.06.2020 20,4 20,7 21,3 20,8 28,2 11,5 65 0,0 5519 1,0 6,7 --- 11,5
24.06.2020 20,1 20,5 21,7 21,0 29,3 9,3 54 0,0 8346 1,0 7,8 --- 12,2
23.06.2020 19,8 19,9 20,6 19,8 28,8 8,5 62 0,0 8119 0,6 4,1 --- 12,2
22.06.2020 20,0 19,7 20,1 18,2 25,5 11,5 72 0,0 5624 1,6 8,0 --- 10,7
21.06.2020 19,9 20,2 21,3 19,8 27,8 9,4 63 0,0 7200 0,8 5,5 --- 11,5
20.06.2020 19,7 19,9 21,0 18,6 24,3 11,7 69 0,0 6630 1,3 8,7 --- 11,4
19.06.2020 19,3 19,1 20,0 17,6 25,6 9,2 71 0,0 5521 1,1 7,0 --- 10,9
18.06.2020 19,4 19,6 19,6 18,1 25,5 13,4 75 0,2 5275 1,0 7,4 --- 11,2
17.06.2020 18,9 19,0 18,7 17,5 25,4 12,2 87 4,0 3945 0,5 6,5 --- 8,7
16.06.2020 18,5 18,4 18,1 17,4 20,7 14,2 87 1,7 2831 0,3 2,6 --- 10,5
15.06.2020 18,3 17,8 19,0 18,0 20,5 15,7 77 0,1 1960 1,4 6,7 --- 7,9
14.06.2020 18,9 18,3 18,1 17,5 20,3 14,8 82 3,5 1697 1,4 7,6 --- 6,8
13.06.2020 18,6 19,0 21,8 20,4 27,1 13,6 67 0,0 5254 1,2 7,6 --- 11,0
12.06.2020 17,4 18,1 19,7 19,1 27,9 8,7 70 0,0 7779 1,2 7,9 --- 11,8
11.06.2020 16,9 16,5 15,9 15,2 21,4 11,1 84 3,0 2673 0,5 4,6 --- 7,1
10.06.2020 16,8 15,9 15,2 14,8 19,9 11,3 85 1,3 1906 0,3 4,9 --- 8,0
09.06.2020 16,7 16,3 16,0 14,8 21,7 6,4 72 0,1 4324 0,6 5,2 --- 11,3
08.06.2020 16,3 16,2 16,1 14,2 21,2 7,3 71 0,0 5801 0,8 6,5 --- 11,7
07.06.2020 15,6 15,0 15,8 13,3 18,6 6,5 67 0,0 4740 1,2 7,1 --- 12,0
06.06.2020 15,4 14,1 12,6 12,1 17,5 7,2 75 6,1 4685 1,4 11,3 --- 9,2
05.06.2020 16,4 14,1 11,1 11,0 14,9 8,3 83 8,7 2040 1,6 9,7 --- 7,3
04.06.2020 18,3 16,8 14,5 14,2 17,7 11,0 90 10,0 1358 1,4 9,0 --- 4,0
03.06.2020 19,3 19,7 19,3 18,3 28,9 10,3 70 23,7 5635 0,8 11,0 --- 10,8
02.06.2020 18,6 20,1 21,2 19,6 29,5 7,4 55 0,0 7913 0,7 4,7 --- 12,2
01.06.2020 17,6 18,8 18,5 17,7 27,6 5,0 56 0,0 8309 0,7 7,3 --- 12,2
31.05.2020 17,0 17,7 15,8 14,9 22,3 6,3 57 0,0 7329 1,0 6,2 --- 12,2
30.05.2020 16,4 17,1 15,8 15,0 23,8 4,8 52 0,0 8019 1,2 8,8 --- 11,8
29.05.2020 15,8 16,5 15,6 14,9 23,4 3,4 54 0,0 7976 0,8 5,3 --- 12,2
28.05.2020 15,1 16,3 17,2 17,0 23,7 9,7 50 0,0 8368 0,9 7,3 --- 12,2
27.05.2020 13,7 13,2 16,8 16,1 25,1 4,5 62 0,0 7986 0,6 5,4 --- 11,4
26.05.2020 13,6 12,7 14,3 13,8 21,9 3,3 67 0,0 7619 0,9 6,9 --- 12,2
25.05.2020 13,8 13,2 15,4 14,9 20,3 8,8 74 0,0 4596 2,3 11,7 --- 10,5
24.05.2020 13,8 12,7 13,9 12,5 17,8 6,5 72 0,0 3699 1,6 8,4 --- 7,2
23.05.2020 14,6 14,0 14,3 13,7 16,3 10,0 78 4,8 2770 1,4 7,1 --- 8,0
22.05.2020 14,2 14,4 18,3 18,5 26,0 10,0 76 5,5 3096 0,9 9,4 --- 11,1
21.05.2020 13,7 13,9 18,2 18,4 27,8 7,8 65 0,0 7777 0,7 4,0 --- 12,2
20.05.2020 13,2 13,8 18,8 18,7 26,2 11,8 64 0,0 6491 0,8 7,1 --- 12,0
19.05.2020 12,2 12,3 17,0 16,7 25,9 4,8 61 0,0 7260 1,1 7,6 --- 12,3
18.05.2020 11,4 11,3 15,8 15,3 25,6 3,0 61 0,0 7714 1,0 6,0 --- 12,3
17.05.2020 10,9 10,4 13,0 12,4 20,8 3,1 62 0,0 7859 1,1 7,9 --- 12,2
16.05.2020 10,5 9,7 11,7 11,1 20,5 0,1 60 0,0 7598 0,8 5,0 --- 12,2
15.05.2020 10,3 9,3 11,1 10,4 19,3 0,1 58 0,0 8069 1,1 7,0 --- 12,3
14.05.2020 10,3 9,1 9,0 8,7 17,2 0,2 66 0,0 6396 0,9 7,2 --- 12,3
13.05.2020 10,4 9,1 9,0 8,4 17,1 -0,7 68 0,0 5622 0,7 4,4 --- 10,0
12.05.2020 10,8 9,1 8,3 7,5 15,3 -1,6 65 0,0 7958 0,8 6,5 --- 11,9
11.05.2020 12,5 11,0 8,0 8,0 14,6 3,2 82 6,4 1440 1,1 5,6 --- 4,2
10.05.2020 12,4 12,5 15,4 15,0 25,1 8,7 86 2,0 3789 0,7 7,8 --- 8,3
09.05.2020 12,0 11,8 13,9 14,2 20,2 6,7 76 0,6 2815 0,6 3,1 --- 10,5
08.05.2020 11,3 11,4 15,0 15,5 25,0 4,6 62 0,0 6880 0,6 3,7 --- 12,2
07.05.2020 10,5 9,8 12,4 12,6 23,0 0,7 62 0,0 7538 0,7 4,7 --- 12,3
06.05.2020 10,4 9,1 9,6 9,8 19,0 -1,1 61 0,0 7773 0,8 7,6 --- 12,3
05.05.2020 10,9 9,6 9,3 9,2 17,2 1,3 67 0,0 7253 0,7 5,2 --- 12,3
04.05.2020 11,4 10,7 10,6 10,7 15,0 4,7 87 6,4 2047 0,5 4,1 --- 6,2
03.05.2020 10,9 10,1 11,4 10,8 18,6 0,8 72 0,0 5613 0,7 6,2 --- 11,6
02.05.2020 11,2 10,1 9,4 8,9 13,8 5,7 83 3,1 4178 1,6 11,3 --- 9,3
01.05.2020 11,5 10,5 10,1 10,1 15,5 6,7 80 4,7 3376 1,4 9,8 --- 8,9
30.04.2020 11,8 11,3 11,9 12,1 16,5 8,1 78 12,8 2851 2,1 9,8 --- 7,5
29.04.2020 11,3 11,1 14,2 13,7 18,5 8,6 70 0,0 4153 1,7 9,2 --- 9,4
28.04.2020 10,9 10,1 10,9 11,1 18,2 4,1 83 1,7 2290 0,9 8,3 --- 7,5
27.04.2020 10,7 10,3 13,5 12,9 23,6 1,5 60 0,0 6777 0,9 6,9 --- 11,0
26.04.2020 10,5 9,7 11,3 11,4 21,5 -0,6 61 0,0 7206 0,7 4,9 --- 12,0
25.04.2020 10,9 10,1 10,5 10,6 18,9 3,3 63 0,0 6588 1,0 4,9 --- 11,3
24.04.2020 10,9 10,4 12,8 12,5 22,8 2,2 62 0,0 5974 1,4 8,1 --- 10,9
23.04.2020 10,8 10,4 12,8 13,5 23,6 1,8 53 0,0 7086 0,9 5,7 --- 12,0
22.04.2020 10,6 10,1 12,8 13,4 22,4 1,7 47 0,0 7170 1,9 9,6 --- 12,0
21.04.2020 10,6 10,1 13,2 13,7 21,1 6,9 41 0,0 7073 2,3 10,5 --- 11,9
20.04.2020 10,6 9,7 11,2 11,7 19,1 2,2 46 0,0 7017 2,1 11,1 --- 11,9
19.04.2020 10,9 10,5 11,8 11,9 17,9 6,3 77 0,1 4212 1,0 6,7 --- 8,4
18.04.2020 10,6 10,7 13,7 14,1 25,2 6,5 74 5,8 3287 0,7 5,9 --- 7,6
17.04.2020 9,6 9,8 14,8 15,1 26,0 3,6 61 0,0 6102 0,6 3,7 --- 10,4
16.04.2020 8,6 8,2 12,4 12,4 25,4 -0,6 58 0,0 6232 0,8 5,5 --- 11,4
15.04.2020 8,1 6,8 7,8 7,8 19,3 -2,8 61 0,0 5935 0,7 5,0 --- 10,7
14.04.2020 8,6 6,6 5,1 5,0 13,5 -2,2 60 0,0 5084 1,2 6,7 --- 11,1
13.04.2020 9,8 8,2 7,0 7,6 12,7 0,3 68 0,9 2939 1,8 8,9 --- 8,0
12.04.2020 10,0 9,5 12,8 13,3 24,3 4,8 58 0,0 4725 0,8 6,0 --- 10,5
11.04.2020 10,0 9,4 12,0 13,1 23,6 1,7 51 0,0 6419 0,6 2,9 --- 11,3
10.04.2020 9,9 9,7 13,5 13,8 23,6 3,3 60 0,0 6231 0,9 5,2 --- 11,1
09.04.2020 9,4 9,4 13,5 13,9 25,1 3,7 61 0,0 5171 0,7 4,7 --- 9,1
08.04.2020 8,9 8,9 13,0 14,0 25,2 3,3 61 0,0 5841 0,8 3,7 --- 10,9
07.04.2020 8,0 7,9 11,9 12,5 23,6 1,9 64 0,0 5196 0,7 5,2 --- 9,9
06.04.2020 7,2 6,7 10,6 11,5 23,5 -1,0 55 0,0 5969 1,1 8,4 --- 11,0
05.04.2020 6,6 5,7 8,0 8,8 19,3 -2,1 58 0,0 6042 1,6 11,0 --- 10,9
04.04.2020 6,3 5,2 6,3 6,2 16,5 -3,5 66 0,0 5773 0,8 4,2 --- 10,9
03.04.2020 6,1 5,1 7,0 6,7 12,0 0,1 66 0,0 2031 1,6 7,6 --- 7,3
02.04.2020 5,5 4,0 5,0 4,5 13,6 -5,2 61 0,0 5668 1,2 8,1 --- 10,7
01.04.2020 5,6 3,7 3,1 3,0 12,6 -6,3 57 0,0 5815 0,6 3,6 --- 10,7
31.03.2020 6,1 4,8 4,2 4,5 10,8 -2,0 60 0,0 4937 0,9 7,5 --- 10,2
30.03.2020 6,0 4,0 3,0 2,5 10,5 -5,7 53 0,0 5620 1,1 6,6 --- 10,6
29.03.2020 6,8 5,2 4,3 4,4 8,2 -0,1 66 0,0 1397 1,6 7,7 --- 5,8
28.03.2020 6,4 5,8 8,8 9,4 19,5 0,1 59 0,0 4984 1,1 4,6 --- 10,2
27.03.2020 5,6 4,5 6,8 7,2 17,2 -2,4 62 0,0 5011 1,0 5,9 --- 10,2
26.03.2020 5,2 3,5 4,5 4,8 11,6 -0,7 46 0,0 5237 1,7 10,6 --- 9,7
25.03.2020 5,0 2,8 2,7 2,8 11,2 -6,6 48 0,0 5441 1,6 9,4 --- 10,4
24.03.2020 5,5 2,9 1,5 1,7 9,7 -6,7 51 0,0 5471 1,6 8,6 --- 10,4
23.03.2020 6,3 3,7 2,6 3,0 8,9 -1,8 39 0,0 5415 2,8 8,6 --- 10,3
22.03.2020 7,3 4,6 3,6 3,9 9,6 -1,3 47 0,0 5411 2,8 10,7 --- 10,3
21.03.2020 8,9 6,9 4,9 5,2 7,9 2,0 71 2,9 1764 2,3 11,1 --- 6,6
20.03.2020 9,2 8,6 10,0 9,9 17,1 5,4 80 0,0 2619 0,9 6,1 --- 6,3
19.03.2020 8,7 8,3 11,0 10,8 19,0 5,1 74 0,0 4004 0,6 4,6 --- 8,5
18.03.2020 8,1 6,9 8,8 8,7 17,9 0,7 78 0,0 3345 0,6 5,3 --- 9,0
17.03.2020 8,3 7,6 9,9 10,5 17,9 4,6 75 0,0 2820 0,9 3,9 --- 8,5
16.03.2020 7,5 6,3 8,3 8,3 19,0 -1,1 77 0,0 4105 0,7 3,5 --- 9,6
15.03.2020 7,6 6,4 8,1 8,5 15,0 2,9 64 0,0 4275 1,9 8,5 --- 9,6
14.03.2020 7,7 6,0 5,2 5,1 12,5 -0,2 82 0,1 2880 0,9 7,9 --- 7,3
13.03.2020 8,3 6,6 6,7 6,6 9,7 2,2 72 0,8 2395 2,1 11,3 --- 6,5
12.03.2020 9,2 8,6 10,4 10,8 13,4 6,1 68 2,1 1700 2,5 13,0 --- 6,7
11.03.2020 8,3 8,8 13,7 13,8 16,1 12,2 81 1,8 2130 3,0 10,9 --- 7,5
10.03.2020 7,0 5,9 8,5 8,9 13,7 4,9 85 10,3 803 2,0 10,6 --- 1,7
09.03.2020 7,1 6,3 8,3 7,7 11,4 4,5 77 1,4 2591 1,4 8,5 --- 7,2
08.03.2020 6,2 5,3 8,2 8,3 12,1 4,6 70 0,1 2193 2,1 9,2 --- 6,9
07.03.2020 6,1 4,6 5,5 5,3 9,2 1,8 74 0,0 1798 2,3 9,8 --- 6,2
06.03.2020 6,3 5,0 5,3 5,7 7,9 4,3 89 4,8 509 2,8 11,0 --- 0,9
05.03.2020 6,1 4,5 5,2 5,3 7,0 2,9 89 9,5 817 1,6 7,6 --- 2,5
04.03.2020 6,0 4,5 5,9 4,7 10,6 -0,2 79 0,2 3241 1,4 7,2 --- 7,7
03.03.2020 6,6 5,2 5,8 4,7 8,4 0,0 80 0,9 3044 2,3 12,1 --- 7,8
02.03.2020 6,5 5,3 5,7 5,8 10,2 1,2 84 6,5 2055 1,8 13,1 --- 6,1
01.03.2020 6,3 5,2 7,8 7,6 12,2 4,5 73 4,6 2540 2,2 10,7 --- 6,0
29.02.2020 5,8 5,0 7,6 8,0 14,0 3,5 77 4,8 1524 2,3 12,4 --- 5,9
28.02.2020 5,2 3,6 4,6 4,0 7,2 0,8 78 2,6 2868 2,3 10,7 --- 7,8
27.02.2020 5,8 3,4 1,7 2,1 4,8 0,3 89 10,2 752 1,7 8,8 --- 2,1
26.02.2020 6,6 4,7 3,6 3,8 5,9 2,4 79 1,0 1241 2,4 10,0 --- 5,2
25.02.2020 7,0 6,3 8,8 8,8 10,8 4,5 76 2,0 1957 2,3 11,9 --- 5,2
24.02.2020 6,6 5,2 6,2 6,8 11,8 2,5 83 1,5 472 2,0 10,0 --- ---
23.02.2020 6,3 5,9 9,2 10,2 12,4 6,6 83 8,0 369 3,7 15,5 --- ---
22.02.2020 5,5 3,8 6,1 6,7 10,9 1,4 72 0,0 1182 1,9 9,3 --- 4,1
21.02.2020 6,0 4,6 5,9 5,4 8,3 2,6 73 0,9 2301 2,5 16,6 --- 7,6
20.02.2020 5,8 4,5 7,0 7,1 10,7 4,7 78 2,7 1177 1,7 14,5 --- 3,9
19.02.2020 6,1 4,5 5,2 5,4 7,4 0,5 73 2,7 1487 2,8 12,5 --- 5,0
18.02.2020 6,2 5,0 7,0 7,0 9,4 5,0 71 0,1 2020 2,2 9,1 --- 5,9
17.02.2020 6,4 5,7 7,5 8,1 15,7 4,4 78 5,4 693 1,7 13,3 --- 1,8
16.02.2020 5,4 5,2 12,5 13,2 16,9 8,5 58 0,0 1269 3,1 12,9 --- 3,8
15.02.2020 4,5 3,1 5,9 6,6 11,0 1,5 83 0,0 1812 1,5 8,0 --- 6,4
14.02.2020 4,3 3,2 5,0 5,6 7,5 2,0 85 0,3 747 1,9 9,2 --- 1,6
13.02.2020 3,9 1,7 2,6 3,2 5,9 0,5 89 4,0 385 1,8 11,3 --- 0,3
12.02.2020 4,4 2,4 3,6 4,0 7,2 1,8 76 1,3 1680 2,3 10,2 --- 5,6
11.02.2020 5,0 3,2 4,1 4,8 7,8 0,7 70 4,3 1464 4,4 18,8 --- 4,1
10.02.2020 5,2 4,7 7,7 8,2 13,0 3,9 76 22,4 1412 4,5 22,8 --- 4,0
09.02.2020 3,4 2,5 7,5 8,0 13,0 0,9 76 0,0 1135 2,6 17,1 --- 4,1
08.02.2020 3,0 0,5 0,0 0,4 5,3 -4,6 90 0,1 659 0,6 4,4 --- 2,2
07.02.2020 3,7 1,0 -0,8 -0,4 7,5 -5,0 88 0,1 2121 0,6 5,6 --- 6,0
06.02.2020 4,6 1,8 -0,6 -0,3 5,0 -3,7 93 0,1 684 0,4 2,3 --- 2,4
05.02.2020 5,9 3,7 3,3 3,4 7,3 -2,2 80 0,0 2232 2,2 7,4 --- 6,5
04.02.2020 6,8 5,1 4,2 4,3 7,2 2,3 89 16,3 1141 3,4 14,2 --- 3,6
03.02.2020 7,1 6,4 9,4 9,9 11,8 7,2 78 9,4 849 2,3 10,6 --- 3,1
02.02.2020 6,7 5,8 8,6 9,5 14,0 5,7 79 7,0 479 2,4 10,7 --- 0,3
01.02.2020 6,6 6,4 10,5 11,4 12,4 8,6 82 9,0 251 1,8 14,8 --- ---
31.01.2020 5,5 5,7 12,1 12,5 15,3 10,2 79 0,1 1358 2,1 9,1 --- 4,1
30.01.2020 4,0 2,7 6,5 7,0 10,5 3,6 79 0,5 1051 1,3 6,6 --- 3,8
29.01.2020 3,9 2,1 3,4 4,1 6,1 2,0 76 0,3 560 2,0 12,7 --- 0,9
28.01.2020 4,2 3,0 4,6 5,1 7,6 1,9 81 14,3 839 2,7 13,3 --- 2,6
27.01.2020 3,4 2,1 4,6 5,0 8,2 0,0 92 2,7 240 1,6 10,5 --- ---
26.01.2020 3,1 1,6 1,4 1,2 4,6 -1,0 97 0,1 773 0,8 4,5 --- 2,9
25.01.2020 2,7 1,1 1,0 0,7 2,8 -0,9 96 0,0 422 0,7 3,1 --- ---
24.01.2020 2,4 0,3 0,4 0,2 1,3 -1,5 90 0,0 416 0,9 4,5 --- ---
23.01.2020 2,4 0,2 0,2 0,6 3,0 -3,2 93 0,0 399 0,7 5,0 --- 0,1
22.01.2020 2,6 -0,3 -2,4 -2,7 0,8 -6,6 97 0,1 1027 0,4 2,8 --- 3,4
21.01.2020 3,7 0,5 -3,4 -2,7 3,9 -5,9 96 0,1 1274 0,4 1,6 --- 4,4
20.01.2020 4,7 2,7 1,5 1,9 6,9 -3,0 88 0,0 1125 0,5 3,0 --- 3,8
19.01.2020 4,7 2,8 2,9 3,2 5,2 1,2 88 0,0 731 1,3 6,6 --- 2,1
18.01.2020 5,2 3,1 3,0 4,0 6,6 0,9 82 0,1 508 1,1 5,7 --- 0,9
17.01.2020 5,5 3,4 4,6 5,8 9,8 0,3 88 0,2 567 1,1 5,3 --- 1,5
16.01.2020 6,3 5,2 7,1 8,2 12,9 1,7 90 0,9 1388 0,6 5,8 --- 5,1
15.01.2020 5,8 5,0 10,2 10,8 13,5 7,1 66 0,0 1377 1,8 7,5 --- 4,9
14.01.2020 5,1 4,0 8,3 8,8 11,0 5,5 70 0,0 400 2,3 10,0 --- ---
13.01.2020 4,6 3,0 5,2 5,7 6,9 3,5 89 0,0 274 1,2 7,4 --- 0,2
12.01.2020 4,7 2,4 2,7 3,1 6,6 -1,0 88 0,1 444 1,3 6,6 --- 0,9
11.01.2020 5,6 3,6 3,0 3,5 6,7 -0,2 85 0,0 884 1,1 5,6 --- 2,3
10.01.2020 6,1 5,3 7,5 8,2 10,9 4,7 85 2,5 632 2,0 8,8 --- 1,9
09.01.2020 5,2 4,8 9,0 9,4 11,9 7,8 95 12,0 96 1,3 6,0 --- ---
08.01.2020 4,1 2,8 5,5 5,7 7,9 3,8 94 1,8 161 1,4 5,4 --- ---
07.01.2020 3,6 1,9 3,5 3,8 8,2 -0,7 91 0,2 647 1,0 5,2 --- 1,7
06.01.2020 4,1 2,2 1,9 2,2 5,8 -0,5 93 0,0 1186 1,2 5,3 --- 4,9
05.01.2020 4,0 3,0 5,0 5,4 6,3 4,7 96 0,5 127 0,6 5,6 --- ---
04.01.2020 3,5 2,3 4,0 4,9 7,0 2,9 87 0,6 289 2,3 8,8 --- 0,5
03.01.2020 2,2 0,9 5,6 6,0 9,3 1,8 90 0,7 247 1,9 8,3 --- ---
02.01.2020 1,9 -0,4 -0,7 -0,9 1,8 -4,3 98 0,1 400 1,3 5,5 --- ---
01.01.2020 2,1 -0,5 -2,1 -2,1 0,6 -5,4 99 0,1 510 0,4 2,2 --- 0,7

Mittelwerte (Temperaturen, Strahlung, rel. Feuchte, Wind), Summe (Regen) für 2020
11,4 10,6 11,7 11,4 71 356 3.925 1,3

Landesbetrieb Landwirtschaft Hessen 2009

      Werte bis 5 Uhr SommerzeitCSV-Datei: Dauborn20.csvDiagramm: Dauborn